createdAt,value
2022-08-09T00:00:19.939Z,2.58
2022-08-09T00:02:50.230Z,2.63
2022-08-09T00:06:18.685Z,2.90
2022-08-09T00:08:31.668Z,2.65
2022-08-09T00:11:05.892Z,2.90
2022-08-09T00:13:55.583Z,2.88
2022-08-09T00:16:26.305Z,2.55
2022-08-09T00:19:09.441Z,2.90
2022-08-09T00:21:55.681Z,2.50
2022-08-09T00:24:27.490Z,2.60
2022-08-09T00:27:00.441Z,2.97
2022-08-09T00:29:39.934Z,2.92
2022-08-09T00:32:25.761Z,2.97
2022-08-09T00:34:58.729Z,2.88
2022-08-09T00:37:32.398Z,3.05
2022-08-09T00:40:13.630Z,2.83
2022-08-09T00:44:10.645Z,2.83
2022-08-09T00:45:47.452Z,3.00
2022-08-09T00:48:24.151Z,2.80
2022-08-09T00:50:55.711Z,2.60
2022-08-09T00:53:26.149Z,2.97
2022-08-09T00:56:05.129Z,2.70
2022-08-09T00:58:39.162Z,2.95
2022-08-09T01:01:16.243Z,3.28
2022-08-09T01:03:56.589Z,3.03
2022-08-09T01:06:53.873Z,3.30
2022-08-09T01:09:36.008Z,2.92
2022-08-09T01:12:19.577Z,2.88
2022-08-09T01:15:01.025Z,3.15
2022-08-09T01:17:39.234Z,3.53
2022-08-09T01:20:12.726Z,3.17
2022-08-09T01:24:00.541Z,3.15
2022-08-09T01:26:20.994Z,3.15
2022-08-09T01:28:56.897Z,2.90
2022-08-09T01:32:29.526Z,2.90
2022-08-09T01:34:25.104Z,3.47
2022-08-09T01:36:59.207Z,3.00
2022-08-09T01:39:31.278Z,2.92
2022-08-09T01:42:11.088Z,3.03
2022-08-09T01:44:44.882Z,2.63
2022-08-09T01:47:17.743Z,3.45
2022-08-09T01:49:54.525Z,3.25
2022-08-09T01:52:26.354Z,2.58
2022-08-09T01:55:00.226Z,2.92
2022-08-09T01:57:40.169Z,3.10
2022-08-09T02:00:35.038Z,3.00
2022-08-09T02:03:13.718Z,3.10
2022-08-09T02:06:06.322Z,2.72
2022-08-09T02:08:57.221Z,3.13
2022-08-09T02:11:40.338Z,3.10
2022-08-09T02:14:15.021Z,2.55
2022-08-09T02:16:58.911Z,2.92
2022-08-09T02:19:38.949Z,3.15
2022-08-09T02:22:31.553Z,2.53
2022-08-09T02:25:15.045Z,3.05
2022-08-09T02:28:00.397Z,3.08
2022-08-09T02:30:41.564Z,2.50
2022-08-09T02:33:17.401Z,2.90
2022-08-09T02:36:03.856Z,2.70
2022-08-09T02:38:37.587Z,2.75
2022-08-09T02:41:11.970Z,3.20
2022-08-09T02:43:55.029Z,3.28
2022-08-09T02:46:30.490Z,2.80
2022-08-09T02:49:08.918Z,2.67
2022-08-09T02:51:42.250Z,3.08
2022-08-09T02:54:15.320Z,3.30
2022-08-09T02:56:54.036Z,2.80
2022-08-09T02:59:36.063Z,2.58
2022-08-09T03:02:11.933Z,3.20
2022-08-09T03:04:46.168Z,3.50
2022-08-09T03:07:22.157Z,3.28
2022-08-09T03:09:56.770Z,2.80
2022-08-09T03:12:31.987Z,3.15
2022-08-09T03:15:04.070Z,2.92
2022-08-09T03:17:37.094Z,2.70
2022-08-09T03:20:11.836Z,2.60
2022-08-09T03:22:44.778Z,2.70
2022-08-09T03:25:25.870Z,2.90
2022-08-09T03:28:11.309Z,2.63
2022-08-09T03:30:43.396Z,2.78
2022-08-09T03:33:18.815Z,2.70
2022-08-09T03:36:12.648Z,2.80
2022-08-09T03:38:46.878Z,2.85
2022-08-09T03:41:18.684Z,2.85
2022-08-09T03:44:03.699Z,2.65
2022-08-09T03:46:39.468Z,2.40
2022-08-09T03:49:10.119Z,2.50
2022-08-09T03:51:58.601Z,2.65
2022-08-09T03:54:34.393Z,2.38
2022-08-09T03:57:18.570Z,3.10
2022-08-09T03:59:53.178Z,2.88
2022-08-09T04:02:30.313Z,3.10
2022-08-09T04:05:05.776Z,2.90
2022-08-09T04:07:53.071Z,2.65
2022-08-09T04:10:29.027Z,2.67
2022-08-09T04:13:09.464Z,2.83
2022-08-09T04:16:20.942Z,2.90
2022-08-09T04:18:34.755Z,2.53
2022-08-09T04:21:05.709Z,2.70
2022-08-09T04:23:38.225Z,2.55
2022-08-09T04:26:09.667Z,2.80
2022-08-09T04:28:42.512Z,2.70
2022-08-09T04:31:16.964Z,3.08
2022-08-09T04:33:56.601Z,3.40
2022-08-09T04:36:28.236Z,2.80
2022-08-09T04:39:03.140Z,3.33
2022-08-09T04:41:43.765Z,2.58
2022-08-09T04:44:14.602Z,2.60
2022-08-09T04:46:59.822Z,2.95
2022-08-09T04:49:52.325Z,2.30
2022-08-09T04:52:26.508Z,2.70
2022-08-09T04:55:04.299Z,2.80
2022-08-09T04:57:58.334Z,2.72
2022-08-09T05:00:31.960Z,2.40
2022-08-09T05:03:30.462Z,2.47
2022-08-09T05:06:04.497Z,2.30
2022-08-09T05:08:37.354Z,2.28
2022-08-09T05:11:10.752Z,2.55
2022-08-09T05:13:43.053Z,2.78
2022-08-09T05:16:15.050Z,2.63
2022-08-09T05:18:58.443Z,2.00
2022-08-09T05:21:46.448Z,2.30
2022-08-09T05:24:17.703Z,2.15
2022-08-09T05:26:50.259Z,2.00
2022-08-09T05:29:21.945Z,2.00
2022-08-09T05:31:57.084Z,2.10
2022-08-09T05:34:31.512Z,2.13
2022-08-09T05:37:06.071Z,2.13
2022-08-09T05:39:42.523Z,2.13
2022-08-09T05:42:30.948Z,1.73
2022-08-09T05:45:00.976Z,2.40
2022-08-09T05:47:33.187Z,2.22
2022-08-09T05:50:30.197Z,2.78
2022-08-09T05:52:55.051Z,2.45
2022-08-09T05:55:25.427Z,2.00
2022-08-09T05:57:58.459Z,2.10
2022-08-09T06:00:29.661Z,2.00
2022-08-09T06:03:00.355Z,2.20
2022-08-09T06:05:57.631Z,2.08
2022-08-09T06:08:24.200Z,2.35
2022-08-09T06:10:58.026Z,1.70
2022-08-09T06:13:34.232Z,2.17
2022-08-09T06:16:05.265Z,2.17
2022-08-09T06:18:36.484Z,2.17
2022-08-09T06:21:08.273Z,2.00
2022-08-09T06:23:58.856Z,2.00
2022-08-09T06:26:30.360Z,2.10
2022-08-09T06:29:05.073Z,2.08
2022-08-09T06:31:39.695Z,2.47
2022-08-09T06:34:29.895Z,1.80
2022-08-09T06:37:01.038Z,2.10
2022-08-09T06:39:49.007Z,3.45
2022-08-09T06:42:24.810Z,1.95
2022-08-09T06:46:04.362Z,2.05
2022-08-09T06:47:57.938Z,2.10
2022-08-09T06:50:31.920Z,2.33
2022-08-09T06:53:02.812Z,2.30
2022-08-09T06:55:34.252Z,2.60
2022-08-09T06:58:04.955Z,2.15
2022-08-09T07:00:51.247Z,2.03
2022-08-09T07:03:29.043Z,2.22
2022-08-09T07:06:03.467Z,2.20
2022-08-09T07:08:37.243Z,2.72
2022-08-09T07:11:12.411Z,2.55
2022-08-09T07:13:44.978Z,2.38
2022-08-09T07:16:41.750Z,2.10
2022-08-09T07:19:23.390Z,2.15
2022-08-09T07:21:57.846Z,2.08
2022-08-09T07:24:40.069Z,2.00
2022-08-09T07:27:27.428Z,2.05
2022-08-09T07:30:01.915Z,2.30
2022-08-09T07:32:35.077Z,2.10
2022-08-09T07:35:10.080Z,2.10
2022-08-09T07:37:43.891Z,2.22
2022-08-09T07:40:18.840Z,2.55
2022-08-09T07:43:01.423Z,2.08
2022-08-09T07:45:40.416Z,2.20
2022-08-09T07:48:25.321Z,1.90
2022-08-09T07:51:09.777Z,2.00
2022-08-09T07:54:07.167Z,2.03
2022-08-09T07:56:50.016Z,2.13
2022-08-09T07:59:33.828Z,2.30
2022-08-09T08:02:04.956Z,2.22
2022-08-09T08:04:38.980Z,1.83
2022-08-09T08:07:27.105Z,1.92
2022-08-09T08:10:04.750Z,2.10
2022-08-09T08:12:43.148Z,1.65
2022-08-09T08:15:16.710Z,1.77
2022-08-09T08:17:54.838Z,1.70
2022-08-09T08:20:33.495Z,1.75
2022-08-09T08:23:16.858Z,1.65
2022-08-09T08:25:54.145Z,1.70
2022-08-09T08:28:37.626Z,1.60
2022-08-09T08:31:13.802Z,1.70
2022-08-09T08:33:52.163Z,1.58
2022-08-09T08:36:29.363Z,1.70
2022-08-09T08:39:01.114Z,1.75
2022-08-09T08:41:51.071Z,1.40
2022-08-09T08:44:26.899Z,1.70
2022-08-09T08:47:02.920Z,2.00
2022-08-09T08:49:46.835Z,1.70
2022-08-09T08:55:19.131Z,1.50
2022-08-09T08:57:56.429Z,1.65
2022-08-09T09:00:30.092Z,1.40
2022-08-09T09:03:11.363Z,1.60
2022-08-09T09:06:00.651Z,1.40
2022-08-09T09:08:40.837Z,1.65
2022-08-09T09:11:17.584Z,1.30
2022-08-09T09:13:57.164Z,1.10
2022-08-09T09:16:30.301Z,1.40
2022-08-09T09:22:11.851Z,1.10
2022-08-09T09:24:47.003Z,1.10
2022-08-09T09:27:22.054Z,1.30
2022-08-09T09:30:37.990Z,1.38
2022-08-09T09:33:15.990Z,1.30
2022-08-09T09:36:02.277Z,1.00
2022-08-09T09:38:45.850Z,1.30
2022-08-09T09:41:49.371Z,1.25
2022-08-09T09:44:33.933Z,1.33
2022-08-09T09:47:09.721Z,1.13
2022-08-09T09:50:07.817Z,1.08
2022-08-09T09:52:36.510Z,1.20
2022-08-09T09:55:28.307Z,1.30
2022-08-09T09:58:17.295Z,1.25
2022-08-09T10:00:55.330Z,1.25
2022-08-09T10:03:44.150Z,5.78
2022-08-09T10:06:14.945Z,1.92
2022-08-09T10:08:57.389Z,1.15
2022-08-09T10:12:00.427Z,1.27
2022-08-09T10:14:33.649Z,1.55
2022-08-09T10:17:40.304Z,1.15
2022-08-09T10:20:04.800Z,1.25
2022-08-09T10:22:36.080Z,1.58
2022-08-09T10:25:14.164Z,1.38
2022-08-09T10:27:57.966Z,2.33
2022-08-09T10:33:29.580Z,1.58
2022-08-09T10:36:12.973Z,1.90
2022-08-09T10:38:56.224Z,1.40
2022-08-09T10:41:31.260Z,2.20
2022-08-09T10:44:02.455Z,1.65
2022-08-09T10:46:57.465Z,1.60
2022-08-09T10:49:50.804Z,1.50
2022-08-09T10:52:49.396Z,1.27
2022-08-09T10:55:27.723Z,1.42
2022-08-09T10:58:00.085Z,1.20
2022-08-09T11:00:41.842Z,1.20
2022-08-09T11:03:51.226Z,1.35
2022-08-09T11:06:26.237Z,1.30
2022-08-09T11:09:06.022Z,1.10
2022-08-09T11:12:14.306Z,1.15
2022-08-09T11:14:51.592Z,1.15
2022-08-09T11:18:02.774Z,1.40
2022-08-09T11:20:50.448Z,1.25
2022-08-09T11:23:23.886Z,1.20
2022-08-09T11:28:54.414Z,1.60
2022-08-09T11:31:53.122Z,1.30
2022-08-09T11:34:36.222Z,1.27
2022-08-09T11:37:17.943Z,1.25
2022-08-09T11:40:09.926Z,1.80
2022-08-09T11:42:58.587Z,1.25
2022-08-09T11:48:26.143Z,1.30
2022-08-09T11:52:49.207Z,1.33
2022-08-09T11:54:33.366Z,1.50
2022-08-09T11:58:00.419Z,1.25
2022-08-09T12:00:33.905Z,1.20
2022-08-09T12:03:31.972Z,1.20
2022-08-09T12:05:56.384Z,1.42
2022-08-09T12:08:28.242Z,1.10
2022-08-09T12:11:04.477Z,1.50
2022-08-09T12:14:08.502Z,1.08
2022-08-09T12:16:40.937Z,1.30
2022-08-09T12:19:13.139Z,1.50
2022-08-09T12:21:50.847Z,1.23
2022-08-09T12:24:26.363Z,1.40
2022-08-09T12:29:10.738Z,1.17
2022-08-09T12:30:35.306Z,1.40
2022-08-09T12:32:48.844Z,1.23
2022-08-09T12:35:21.861Z,1.30
2022-08-09T12:37:53.858Z,1.10
2022-08-09T12:40:27.369Z,1.20
2022-08-09T12:43:00.142Z,1.27
2022-08-09T12:45:34.706Z,1.35
2022-08-09T12:48:20.277Z,1.20
2022-08-09T12:51:03.864Z,1.45
2022-08-09T12:53:38.735Z,1.60
2022-08-09T12:56:37.027Z,1.65
2022-08-09T12:59:14.043Z,1.38
2022-08-09T13:01:48.959Z,1.30
2022-08-09T13:04:33.193Z,1.50
2022-08-09T13:07:16.729Z,1.50
2022-08-09T13:09:56.018Z,1.55
2022-08-09T13:12:32.322Z,1.42
2022-08-09T13:15:13.060Z,1.88
2022-08-09T13:18:03.203Z,1.63
2022-08-09T13:21:04.154Z,1.60
2022-08-09T13:24:42.602Z,1.60
2022-08-09T13:26:40.773Z,1.70
2022-08-09T13:29:15.242Z,1.50
2022-08-09T13:32:20.250Z,1.38
2022-08-09T13:34:53.953Z,1.75
2022-08-09T13:37:50.533Z,1.50
2022-08-09T13:41:53.918Z,1.45
2022-08-09T13:43:09.354Z,1.60
2022-08-09T13:46:42.738Z,1.42
2022-08-09T13:48:32.324Z,1.40
2022-08-09T13:51:02.270Z,1.40
2022-08-09T13:53:33.521Z,1.65
2022-08-09T13:56:13.029Z,1.25
2022-08-09T13:58:43.833Z,1.38
2022-08-09T14:01:56.097Z,1.33
2022-08-09T14:04:11.189Z,1.67
2022-08-09T14:06:46.449Z,1.47
2022-08-09T14:09:16.702Z,1.58
2022-08-09T14:11:47.972Z,1.95
2022-08-09T14:14:25.840Z,2.00
2022-08-09T14:16:58.619Z,1.63
2022-08-09T14:19:33.322Z,1.70
2022-08-09T14:22:03.998Z,1.85
2022-08-09T14:24:34.592Z,1.77
2022-08-09T14:27:20.006Z,1.90
2022-08-09T14:30:34.541Z,2.00
2022-08-09T14:32:41.132Z,2.25
2022-08-09T14:35:14.920Z,1.95
2022-08-09T14:38:02.007Z,2.03
2022-08-09T14:41:01.382Z,1.80
2022-08-09T14:43:23.144Z,1.73
2022-08-09T14:46:55.436Z,1.55
2022-08-09T14:48:43.218Z,1.90
2022-08-09T14:51:18.033Z,2.03
2022-08-09T14:53:52.580Z,1.90
2022-08-09T14:56:22.635Z,1.85
2022-08-09T14:58:57.823Z,1.90
2022-08-09T15:01:27.976Z,1.90
2022-08-09T15:03:57.951Z,1.98
2022-08-09T15:06:31.590Z,1.55
2022-08-09T15:09:01.582Z,1.80
2022-08-09T15:11:31.551Z,1.73
2022-08-09T15:14:04.786Z,1.70
2022-08-09T15:16:43.525Z,1.85
2022-08-09T15:19:19.903Z,1.85
2022-08-09T15:21:57.801Z,1.77
2022-08-09T15:24:29.932Z,1.70
2022-08-09T15:26:59.992Z,1.50
2022-08-09T15:30:58.381Z,1.63
2022-08-09T15:32:28.423Z,1.77
2022-08-09T15:37:56.601Z,2.50
2022-08-09T15:40:32.359Z,1.67
2022-08-09T15:43:03.677Z,1.70
2022-08-09T15:46:07.918Z,1.50
2022-08-09T15:48:28.532Z,1.70
2022-08-09T15:51:00.696Z,1.73
2022-08-09T15:54:04.443Z,1.70
2022-08-09T15:56:29.169Z,1.60
2022-08-09T15:59:02.466Z,1.80
2022-08-09T16:01:35.769Z,1.60
2022-08-09T16:04:05.975Z,1.55
2022-08-09T16:06:44.812Z,1.52
2022-08-09T16:09:32.634Z,1.70
2022-08-09T16:12:13.574Z,1.73
2022-08-09T16:14:46.022Z,1.60
2022-08-09T16:17:17.042Z,1.67
2022-08-09T16:19:49.507Z,2.05
2022-08-09T16:22:34.665Z,6.65
2022-08-09T16:25:11.305Z,3.25
2022-08-09T16:27:42.626Z,1.67
2022-08-09T16:30:28.522Z,1.50
2022-08-09T16:33:11.642Z,1.20
2022-08-09T16:35:57.606Z,4.10
2022-08-09T16:38:30.968Z,1.77
2022-08-09T16:41:04.935Z,1.80
2022-08-09T16:43:40.584Z,1.60
2022-08-09T16:46:12.342Z,1.77
2022-08-09T16:48:53.781Z,1.63
2022-08-09T16:51:29.378Z,1.38
2022-08-09T16:54:27.984Z,2.25
2022-08-09T16:56:52.665Z,1.75
2022-08-09T16:59:22.833Z,1.80
2022-08-09T17:01:53.632Z,1.90
2022-08-09T17:04:28.545Z,1.50
2022-08-09T17:08:40.270Z,2.30
2022-08-09T17:09:50.649Z,4.75
2022-08-09T17:12:23.205Z,2.30
2022-08-09T17:14:58.155Z,2.78
2022-08-09T17:17:28.686Z,2.45
2022-08-09T17:20:29.288Z,2.63
2022-08-09T17:22:52.520Z,2.40
2022-08-09T17:25:23.866Z,2.40
2022-08-09T17:27:57.917Z,3.20
2022-08-09T17:30:30.942Z,2.40
2022-08-09T17:33:05.077Z,2.15
2022-08-09T17:35:43.774Z,1.95
2022-08-09T17:38:32.265Z,1.80
2022-08-09T17:41:04.361Z,1.60
2022-08-09T17:43:37.568Z,1.50
2022-08-09T17:46:09.869Z,1.65
2022-08-09T17:48:51.949Z,2.33
2022-08-09T17:51:23.377Z,1.58
2022-08-09T17:53:55.818Z,1.42
2022-08-09T17:56:32.460Z,1.75
2022-08-09T17:59:15.929Z,2.13
2022-08-09T18:02:08.053Z,2.17
2022-08-09T18:04:37.663Z,2.00
2022-08-09T18:07:09.895Z,1.83
2022-08-09T18:10:05.122Z,1.98
2022-08-09T18:12:40.522Z,1.20
2022-08-09T18:16:05.238Z,1.60
2022-08-09T18:18:25.953Z,1.73
2022-08-09T18:21:17.673Z,1.45
2022-08-09T18:24:10.692Z,1.85
2022-08-09T18:26:46.822Z,2.03
2022-08-09T18:30:38.192Z,1.67
2022-08-09T18:32:11.828Z,2.17
2022-08-09T18:34:43.633Z,1.90
2022-08-09T18:37:49.145Z,2.00
2022-08-09T18:40:03.842Z,2.67
2022-08-09T18:42:34.238Z,1.95
2022-08-09T18:45:08.651Z,2.45
2022-08-09T18:47:41.614Z,2.88
2022-08-09T18:50:12.354Z,2.20
2022-08-09T18:52:42.702Z,2.75
2022-08-09T18:55:14.052Z,2.78
2022-08-09T18:57:45.529Z,2.78
2022-08-09T19:00:20.726Z,2.97
2022-08-09T19:02:54.643Z,2.58
2022-08-09T19:05:49.316Z,3.13
2022-08-09T19:08:18.620Z,4.10
2022-08-09T19:10:50.920Z,3.80
2022-08-09T19:13:38.548Z,3.50
2022-08-09T19:16:18.302Z,3.10
2022-08-09T19:18:53.932Z,3.45
2022-08-09T19:21:51.785Z,3.15
2022-08-09T19:24:32.300Z,2.90
2022-08-09T19:27:03.879Z,2.80
2022-08-09T19:29:38.108Z,2.78
2022-08-09T19:32:26.710Z,2.90
2022-08-09T19:35:04.455Z,3.17
2022-08-09T19:37:54.356Z,3.30
2022-08-09T19:40:34.220Z,2.92
2022-08-09T19:43:16.337Z,3.50
2022-08-09T19:45:57.897Z,3.28
2022-08-09T19:49:01.048Z,2.85
2022-08-09T19:51:20.535Z,3.00
2022-08-09T19:53:50.891Z,2.28
2022-08-09T19:56:28.747Z,3.15
2022-08-09T19:59:39.032Z,3.00
2022-08-09T20:02:05.322Z,2.67
2022-08-09T20:04:40.817Z,2.63
2022-08-09T20:07:21.309Z,2.30
2022-08-09T20:09:52.977Z,2.53
2022-08-09T20:12:31.842Z,2.60
2022-08-09T20:16:31.443Z,2.50
2022-08-09T20:18:00.998Z,2.30
2022-08-09T20:20:31.169Z,2.40
2022-08-09T20:23:04.062Z,2.72
2022-08-09T20:25:49.464Z,3.42
2022-08-09T20:28:27.399Z,2.90
2022-08-09T20:30:58.254Z,2.85
2022-08-09T20:33:29.199Z,3.13
2022-08-09T20:36:11.917Z,2.92
2022-08-09T20:41:37.707Z,2.38
2022-08-09T20:44:10.404Z,2.58
2022-08-09T20:46:44.111Z,2.58
2022-08-09T20:49:15.959Z,2.60
2022-08-09T20:51:50.553Z,2.80
2022-08-09T20:54:24.780Z,2.92
2022-08-09T20:56:54.795Z,3.42
2022-08-09T21:00:19.466Z,2.90
2022-08-09T21:02:18.412Z,4.63
2022-08-09T21:05:52.734Z,5.05
2022-08-09T21:07:40.528Z,4.05
2022-08-09T21:10:13.775Z,3.50
2022-08-09T21:15:34.495Z,3.30
2022-08-09T21:18:20.875Z,3.28
2022-08-09T21:20:56.574Z,2.90
2022-08-09T21:23:47.962Z,2.55
2022-08-09T21:26:19.684Z,2.85
2022-08-09T21:28:55.467Z,2.90
2022-08-09T21:31:48.043Z,2.58
2022-08-09T21:34:28.888Z,2.97
2022-08-09T21:36:59.721Z,2.83
2022-08-09T21:39:42.073Z,2.70
2022-08-09T21:42:15.269Z,2.92
2022-08-09T21:44:45.287Z,2.45
2022-08-09T21:47:17.413Z,2.72
2022-08-09T21:49:49.736Z,3.25
2022-08-09T21:52:22.675Z,3.10
2022-08-09T21:54:59.591Z,3.22
2022-08-09T21:57:59.274Z,2.97
2022-08-09T22:00:32.611Z,2.55
2022-08-09T22:03:05.735Z,2.78
2022-08-09T22:05:42.037Z,2.88
2022-08-09T22:08:15.239Z,2.70
2022-08-09T22:11:49.566Z,3.13
2022-08-09T22:13:43.427Z,2.85
2022-08-09T22:16:14.855Z,2.72
2022-08-09T22:18:54.151Z,2.70
2022-08-09T22:21:27.335Z,2.55
2022-08-09T22:24:17.248Z,3.00
2022-08-09T22:26:52.166Z,3.35
2022-08-09T22:29:38.386Z,3.40
2022-08-09T22:32:29.675Z,2.90
2022-08-09T22:35:06.091Z,2.75
2022-08-09T22:37:40.351Z,3.13
2022-08-09T22:40:20.074Z,2.65
2022-08-09T22:42:50.460Z,3.20
2022-08-09T22:48:15.373Z,2.80
2022-08-09T22:48:34.486Z,2.60
2022-08-09T22:51:10.353Z,2.45
2022-08-09T22:53:58.296Z,3.20
2022-08-09T22:56:33.871Z,2.83
2022-08-09T22:59:05.701Z,2.60
2022-08-09T23:01:56.886Z,2.97
2022-08-09T23:04:27.104Z,2.78
2022-08-09T23:07:16.338Z,3.30
2022-08-09T23:09:46.433Z,3.30
2022-08-09T23:12:16.350Z,3.00
2022-08-09T23:14:46.343Z,2.50
2022-08-09T23:17:18.918Z,2.90
2022-08-09T23:20:00.857Z,2.40
2022-08-09T23:22:36.658Z,2.63
2022-08-09T23:25:06.987Z,2.38
2022-08-09T23:27:37.099Z,2.47
2022-08-09T23:30:26.905Z,2.63
2022-08-09T23:33:00.231Z,2.63
2022-08-09T23:35:30.182Z,3.08
2022-08-09T23:38:00.145Z,2.70
2022-08-09T23:40:30.077Z,2.65
2022-08-09T23:42:59.981Z,2.65
2022-08-09T23:45:37.123Z,2.72
2022-08-09T23:48:11.311Z,3.00
2022-08-09T23:50:41.320Z,3.60
2022-08-09T23:53:12.410Z,3.33
2022-08-09T23:55:45.119Z,2.88
2022-08-09T23:58:26.045Z,2.88
